地図

経路データ

SID SEASON NUMBER BASIN SUBBASIN NAME ISO_TIME NATURE LAT LON WMO_WIND WMO_PRES WMO_AGENCY TRACK_TYPE DIST2LAND LANDFALL IFLAG USA_AGENCY USA_ATCF_ID USA_LAT USA_LON USA_RECORD USA_STATUS USA_WIND USA_PRES USA_SSHS USA_R34_NE USA_R34_SE USA_R34_SW USA_R34_NW USA_R50_NE USA_R50_SE USA_R50_SW USA_R50_NW USA_R64_NE USA_R64_SE USA_R64_SW USA_R64_NW USA_POCI USA_ROCI USA_RMW USA_EYE TOKYO_LAT TOKYO_LON TOKYO_GRADE TOKYO_WIND TOKYO_PRES TOKYO_R50_DIR TOKYO_R50_LONG TOKYO_R50_SHORT TOKYO_R30_DIR TOKYO_R30_LONG TOKYO_R30_SHORT TOKYO_LAND CMA_LAT CMA_LON CMA_CAT CMA_WIND CMA_PRES HKO_LAT HKO_LON HKO_CAT HKO_WIND HKO_PRES NEWDELHI_LAT NEWDELHI_LON NEWDELHI_GRADE NEWDELHI_WIND NEWDELHI_PRES NEWDELHI_CI NEWDELHI_DP NEWDELHI_POCI REUNION_LAT REUNION_LON REUNION_TYPE REUNION_WIND REUNION_PRES REUNION_TNUM REUNION_CI REUNION_RMW REUNION_R34_NE REUNION_R34_SE REUNION_R34_SW REUNION_R34_NW REUNION_R50_NE REUNION_R50_SE REUNION_R50_SW REUNION_R50_NW REUNION_R64_NE REUNION_R64_SE REUNION_R64_SW REUNION_R64_NW BOM_LAT BOM_LON BOM_TYPE BOM_WIND BOM_PRES BOM_TNUM BOM_CI BOM_RMW BOM_R34_NE BOM_R34_SE BOM_R34_SW BOM_R34_NW BOM_R50_NE BOM_R50_SE BOM_R50_SW BOM_R50_NW BOM_R64_NE BOM_R64_SE BOM_R64_SW BOM_R64_NW BOM_ROCI BOM_POCI BOM_EYE BOM_POS_METHOD BOM_PRES_METHOD NADI_LAT NADI_LON NADI_CAT NADI_WIND NADI_PRES WELLINGTON_LAT WELLINGTON_LON WELLINGTON_WIND WELLINGTON_PRES DS824_LAT DS824_LON DS824_STAGE DS824_WIND DS824_PRES TD9636_LAT TD9636_LON TD9636_STAGE TD9636_WIND TD9636_PRES TD9635_LAT TD9635_LON TD9635_WIND TD9635_PRES TD9635_ROCI NEUMANN_LAT NEUMANN_LON NEUMANN_CLASS NEUMANN_WIND NEUMANN_PRES MLC_LAT MLC_LON MLC_CLASS MLC_WIND MLC_PRES USA_GUST BOM_GUST BOM_GUST_PER REUNION_GUST REUNION_GUST_PER USA_SEAHGT USA_SEARAD_NE USA_SEARAD_SE USA_SEARAD_SW USA_SEARAD_NW STORM_SPEED STORM_DIR
1933253N12140 1933 51 WP MM NOT_NAMED 1933-09-09 21:00:00 NR 12.0000 140.000 main 1503 1503 __________O___ -1 12.0000 140.000 4 11 304
1933253N12140 1933 51 WP MM NOT_NAMED 1933-09-10 00:00:00 NR 12.3001 139.552 main 1505 1459 __________P___ -1 12.3001 139.552 4 11 304
1933253N12140 1933 51 WP MM NOT_NAMED 1933-09-10 03:00:00 NR 12.5999 139.082 main 1459 1409 __________P___ -1 12.5999 139.082 4 11 302
1933253N12140 1933 51 WP MM NOT_NAMED 1933-09-10 06:00:00 NR 12.8998 138.572 main 1409 1349 __________P___ -1 12.8998 138.572 4 12 300
1933253N12140 1933 51 WP MM NOT_NAMED 1933-09-10 09:00:00 NR 13.2000 138.000 main 1349 1291 __________O___ -1 13.2000 138.000 4 13 297
1933253N12140 1933 51 WP MM NOT_NAMED 1933-09-10 12:00:00 NR 13.4973 137.355 main 1291 1222 __________P___ -1 13.4973 137.355 4 14 294
1933253N12140 1933 51 WP MM NOT_NAMED 1933-09-10 15:00:00 NR 13.7756 136.666 main 1225 1155 __________P___ -1 13.7756 136.666 4 14 291
1933253N12140 1933 51 WP MM NOT_NAMED 1933-09-10 18:00:00 NR 14.0160 135.968 main 1155 1084 __________P___ -1 14.0160 135.968 4 14 288
1933253N12140 1933 51 WP MM NOT_NAMED 1933-09-10 21:00:00 NR 14.2000 135.300 main 1084 1034 __________O___ -1 14.2000 135.300 4 12 284
1933253N12140 1933 51 WP MM NOT_NAMED 1933-09-11 00:00:00 NR 14.3105 134.725 main 1023 973 __________P___ -1 14.3105 134.725 4 11 279
1933253N12140 1933 51 WP MM NOT_NAMED 1933-09-11 03:00:00 NR 14.3661 134.184 main 973 921 __________P___ -1 14.3661 134.184 4 10 274
1933253N12140 1933 51 WP MM NOT_NAMED 1933-09-11 06:00:00 NR 14.3887 133.651 main 921 858 __________P___ -1 14.3887 133.651 4 11 272
1933253N12140 1933 51 WP MM NOT_NAMED 1933-09-11 09:00:00 NR 14.4000 133.100 main 858 796 __________O___ -1 14.4000 133.100 4 12 272
1933253N12140 1933 51 WP MM NOT_NAMED 1933-09-11 12:00:00 NR 14.4368 132.448 main 786 728 __________P___ -1 14.4368 132.448 4 13 273
1933253N12140 1933 51 WP MM NOT_NAMED 1933-09-11 15:00:00 NR 14.4659 131.783 main 728 668 __________P___ -1 14.4659 131.783 4 13 272
1933253N12140 1933 51 WP MM NOT_NAMED 1933-09-11 18:00:00 NR 14.4869 131.151 main 668 609 __________P___ -1 14.4869 131.151 4 11 272
1933253N12140 1933 51 WP MM NOT_NAMED 1933-09-11 21:00:00 NR 14.5000 130.600 main 609 570 __________O___ -1 14.5000 130.600 4 9 271
1933253N12140 1933 51 WP MM NOT_NAMED 1933-09-12 00:00:00 NR 14.4979 130.205 main 570 541 __________P___ -1 14.4979 130.205 4 7 269
1933253N12140 1933 51 WP MM NOT_NAMED 1933-09-12 03:00:00 NR 14.4911 129.890 main 541 513 __________P___ -1 14.4911 129.890 4 6 269
1933253N12140 1933 51 WP MM NOT_NAMED 1933-09-12 06:00:00 NR 14.4887 129.605 main 513 485 __________P___ -1 14.4887 129.605 4 6 271
1933253N12140 1933 51 WP MM NOT_NAMED 1933-09-12 09:00:00 NR 14.5000 129.300 main 485 449 __________O___ -1 14.5000 129.300 4 7 273
1933253N12140 1933 51 WP MM NOT_NAMED 1933-09-12 12:00:00 NR 14.5279 128.871 main 449 413 __________P___ -1 14.5279 128.871 4 9 275
1933253N12140 1933 51 WP MM NOT_NAMED 1933-09-12 15:00:00 NR 14.5705 128.420 main 413 381 __________P___ -1 14.5705 128.420 4 9 277
1933253N12140 1933 51 WP MM NOT_NAMED 1933-09-12 18:00:00 NR 14.6279 127.984 main 381 356 __________P___ -1 14.6279 127.984 4 8 279
1933253N12140 1933 51 WP MM NOT_NAMED 1933-09-12 21:00:00 NR 14.7000 127.600 main 356 325 __________O___ -1 14.7000 127.600 4 7 281
1933253N12140 1933 51 WP MM NOT_NAMED 1933-09-13 00:00:00 NR 14.7528 127.297 main 328 307 __________P___ -1 14.7528 127.297 4 5 283
1933253N12140 1933 51 WP MM NOT_NAMED 1933-09-13 03:00:00 NR 14.8246 127.052 main 307 291 __________P___ -1 14.8246 127.052 4 5 293
1933253N12140 1933 51 WP MM NOT_NAMED 1933-09-13 06:00:00 NR 14.9342 126.856 main 291 276 __________P___ -1 14.9342 126.856 4 4 309
1933253N12140 1933 51 WP MM NOT_NAMED 1933-09-13 09:00:00 NR 15.1000 126.700 main 281 278 __________O___ -1 15.1000 126.700 4 5 326
1933253N12140 1933 51 WP MM NOT_NAMED 1933-09-13 12:00:00 NR 15.3546 126.560 main 290 281 __________P___ -1 15.3546 126.560 4 6 337
1933253N12140 1933 51 WP MM NOT_NAMED 1933-09-13 15:00:00 NR 15.6624 126.455 main 302 294 __________P___ -1 15.6624 126.455 4 7 344
1933253N12140 1933 51 WP MM NOT_NAMED 1933-09-13 18:00:00 NR 15.9890 126.372 main 317 317 __________P___ -1 15.9890 126.372 4 7 347
1933253N12140 1933 51 WP MM NOT_NAMED 1933-09-13 21:00:00 NR 16.3000 126.300 main 335 335 __________O___ -1 16.3000 126.300 4 6 344
1933253N12140 1933 51 WP MM NOT_NAMED 1933-09-14 00:00:00 NR 16.5425 126.210 main 346 346 __________P___ -1 16.5425 126.210 4 5 341
1933253N12140 1933 51 WP MM NOT_NAMED 1933-09-14 03:00:00 NR 16.7650 126.127 main 368 368 __________P___ -1 16.7650 126.127 4 5 341
1933253N12140 1933 51 WP MM NOT_NAMED 1933-09-14 06:00:00 NR 16.9800 126.057 main 382 372 __________P___ -1 16.9800 126.057 4 5 345
1933253N12140 1933 51 WP MM NOT_NAMED 1933-09-14 09:00:00 NR 17.2000 126.000 main 372 372 __________O___ -1 17.2000 126.000 4 5 350
1933253N12140 1933 51 WP MM NOT_NAMED 1933-09-14 12:00:00 NR 17.4265 125.977 main 374 374 __________P___ -1 17.4265 125.977 4 5 354
1933253N12140 1933 51 WP MM NOT_NAMED 1933-09-14 15:00:00 NR 17.6624 125.965 main 379 374 __________P___ -1 17.6624 125.965 4 5 355
1933253N12140 1933 51 WP MM NOT_NAMED 1933-09-14 18:00:00 NR 17.9171 125.945 main 374 374 __________P___ -1 17.9171 125.945 4 5 353
1933253N12140 1933 51 WP MM NOT_NAMED 1933-09-14 21:00:00 NR 18.2000 125.900 main 380 369 __________O___ -1 18.2000 125.900 4 6 349
1933253N12140 1933 51 WP MM NOT_NAMED 1933-09-15 00:00:00 NR 18.5375 125.816 main 369 361 __________P___ -1 18.5375 125.816 4 7 345
1933253N12140 1933 51 WP MM NOT_NAMED 1933-09-15 03:00:00 NR 18.8999 125.703 main 362 356 __________P___ -1 18.8999 125.703 4 8 342
1933253N12140 1933 51 WP MM NOT_NAMED 1933-09-15 06:00:00 NR 19.2625 125.563 main 361 348 __________P___ -1 19.2625 125.563 4 8 338
1933253N12140 1933 51 WP MM NOT_NAMED 1933-09-15 09:00:00 NR 19.6000 125.400 main 352 342 __________O___ -1 19.6000 125.400 4 7 331
1933253N12140 1933 51 WP MM NOT_NAMED 1933-09-15 12:00:00 NR 19.8789 125.201 main 347 341 __________P___ -1 19.8789 125.201 4 7 324
1933253N12140 1933 51 WP MM NOT_NAMED 1933-09-15 15:00:00 NR 20.1302 124.985 main 341 337 __________P___ -1 20.1302 124.985 4 6 321
1933253N12140 1933 51 WP MM NOT_NAMED 1933-09-15 18:00:00 NR 20.3664 124.776 main 344 336 __________P___ -1 20.3664 124.776 4 6 322
1933253N12140 1933 51 WP MM NOT_NAMED 1933-09-15 21:00:00 NR 20.6000 124.600 main 344 344 __________O___ -1 20.6000 124.600 4 6 332
1933253N12140 1933 51 WP MM NOT_NAMED 1933-09-16 00:00:00 NR 20.8620 124.489 main 362 362 __________P___ -1 20.8620 124.489 4 6 341
1933253N12140 1933 51 WP MM NOT_NAMED 1933-09-16 03:00:00 NR 21.1223 124.412 main 372 362 __________P___ -1 21.1223 124.412 4 5 346
1933253N12140 1933 51 WP MM NOT_NAMED 1933-09-16 06:00:00 NR 21.3715 124.354 main 362 342 __________P___ -1 21.3715 124.354 4 5 347
1933253N12140 1933 51 WP MM NOT_NAMED 1933-09-16 09:00:00 NR 21.6000 124.300 main 342 322 __________O___ -1 21.6000 124.300 4 4 342
1933253N12140 1933 51 WP MM NOT_NAMED 1933-09-16 12:00:00 NR 21.7844 124.213 main 322 308 __________P___ -1 21.7844 124.213 4 4 336
1933253N12140 1933 51 WP MM NOT_NAMED 1933-09-16 15:00:00 NR 21.9500 124.128 main 303 298 __________P___ -1 21.9500 124.128 4 4 336
1933253N12140 1933 51 WP MM NOT_NAMED 1933-09-16 18:00:00 NR 22.1156 124.053 main 298 281 __________P___ -1 22.1156 124.053 4 4 342
1933253N12140 1933 51 WP MM NOT_NAMED 1933-09-16 21:00:00 NR 22.3000 124.000 main 281 277 __________O___ -1 22.3000 124.000 4 3 0
1933253N12140 1933 51 WP MM NOT_NAMED 1933-09-17 00:00:00 NR 22.4428 124.045 main 277 274 __________P___ -1 22.4428 124.045 4 3 17
1933253N12140 1933 51 WP MM NOT_NAMED 1933-09-17 03:00:00 NR 22.6195 124.101 main 282 277 __________P___ -1 22.6195 124.101 4 4 8
1933253N12140 1933 51 WP MM NOT_NAMED 1933-09-17 06:00:00 NR 22.8863 124.106 main 277 252 __________P___ -1 22.8863 124.106 4 7 352
1933253N12140 1933 51 WP MM NOT_NAMED 1933-09-17 09:00:00 NR 23.3000 124.000 main 252 194 __________O___ -1 23.3000 124.000 4 12 339
1933253N12140 1933 51 WP MM NOT_NAMED 1933-09-17 12:00:00 NR 23.9865 123.642 main 181 122 __________P___ -1 23.9865 123.642 4 17 333
1933253N12140 1933 51 WP MM NOT_NAMED 1933-09-17 15:00:00 NR 24.8074 123.174 main 122 92 __________P___ -1 24.8074 123.174 4 19 333
1933253N12140 1933 51 WP MM NOT_NAMED 1933-09-17 18:00:00 NR 25.6493 122.692 main 97 97 __________P___ -1 25.6493 122.692 4 18 334
1933253N12140 1933 51 WP MM NOT_NAMED 1933-09-17 21:00:00 NR 26.4000 122.300 main 151 151 __________O___ -1 26.4000 122.300 4 13 336
1933253N12140 1933 51 WP MM NOT_NAMED 1933-09-18 00:00:00 NR 26.8742 122.088 main 153 121 __________P___ -1 26.8742 122.088 4 9 342
1933253N12140 1933 51 WP MM NOT_NAMED 1933-09-18 03:00:00 NR 27.2511 121.989 main 112 87 __________P___ -1 27.2511 121.989 4 7 354
1933253N12140 1933 51 WP MM NOT_NAMED 1933-09-18 06:00:00 NR 27.6025 121.996 main 87 59 __________P___ -1 27.6025 121.996 4 8 7
1933253N12140 1933 51 WP MM NOT_NAMED 1933-09-18 09:00:00 NR 28.0000 122.100 main 59 50 __________O___ -1 28.0000 122.100 4 10 14
1933253N12140 1933 51 WP MM NOT_NAMED 1933-09-18 12:00:00 NR 28.5223 122.261 main 62 49 __________P___ -1 28.5223 122.261 4 12 18
1933253N12140 1933 51 WP MM NOT_NAMED 1933-09-18 15:00:00 NR 29.1026 122.515 main 49 48 __________P___ -1 29.1026 122.515 4 13 23
1933253N12140 1933 51 WP MM NOT_NAMED 1933-09-18 18:00:00 NR 29.7316 122.837 main 87 87 __________P___ -1 29.7316 122.837 4 14 25
1933253N12140 1933 51 WP MM NOT_NAMED 1933-09-18 21:00:00 NR 30.4000 123.200 main 136 131 __________O___ -1 30.4000 123.200 4 15 22
1933253N12140 1933 51 WP MM NOT_NAMED 1933-09-19 00:00:00 NR 31.1404 123.508 main 153 153 __________P___ -1 31.1404 123.508 4 16 21
1933253N12140 1933 51 WP MM NOT_NAMED 1933-09-19 03:00:00 NR 31.9075 123.859 main 189 189 __________P___ -1 31.9075 123.859 4 16 24
1933253N12140 1933 51 WP MM NOT_NAMED 1933-09-19 06:00:00 NR 32.6460 124.280 main 193 129 __________P___ -1 32.6460 124.280 4 16 30
1933253N12140 1933 51 WP MM NOT_NAMED 1933-09-19 09:00:00 NR 33.3000 124.800 main 129 98 __________O___ -1 33.3000 124.800 4 16 36
1933253N12140 1933 51 WP MM NOT_NAMED 1933-09-19 12:00:00 NR 33.9042 125.371 main 94 35 __________P___ -1 33.9042 125.371 4 15 43
1933253N12140 1933 51 WP MM NOT_NAMED 1933-09-19 15:00:00 NR 34.4023 126.051 main 28 0 __________P___ -1 34.4023 126.051 4 15 55
1933253N12140 1933 51 WP MM NOT_NAMED 1933-09-19 18:00:00 NR 34.7494 126.856 main 0 0 __________P___ -1 34.7494 126.856 4 15 71
1933253N12140 1933 51 WP MM NOT_NAMED 1933-09-19 21:00:00 NR 34.9000 127.800 main 9 0 __________O___ -1 34.9000 127.800 4 16 90
1933253N12140 1933 51 WP MM NOT_NAMED 1933-09-20 00:00:00 NR 34.7420 128.785 main 38 33 __________P___ -1 34.7420 128.785 4 18 106
1933253N12140 1933 51 WP MM NOT_NAMED 1933-09-20 03:00:00 NR 34.4013 129.900 main 86 0 __________P___ -1 34.4013 129.900 4 21 110
1933253N12140 1933 51 WP MM NOT_NAMED 1933-09-20 06:00:00 NR 34.0103 131.164 main 0 0 __________P___ -1 34.0103 131.164 4 23 107
1933253N12140 1933 51 WP MM NOT_NAMED 1933-09-20 09:00:00 NR 33.7000 132.600 main 9 0 __________O___ -1 33.7000 132.600 4 27 96
1933253N12140 1933 51 WP MM NOT_NAMED 1933-09-20 12:00:00 NR 33.7186 134.400 main 0 0 __________P___ -1 33.7186 134.400 4 31 88
1933253N12140 1933 51 WP MM NOT_NAMED 1933-09-20 15:00:00 NR 33.8064 136.357 main 24 24 __________P___ -1 33.8064 136.357 4 32 87
1933253N12140 1933 51 WP MM NOT_NAMED 1933-09-20 18:00:00 NR 33.8629 138.262 main 78 78 __________P___ -1 33.8629 138.262 4 29 90
1933253N12140 1933 51 WP MM NOT_NAMED 1933-09-20 21:00:00 NR 33.8000 139.900 main 122 122 __________O___ -1 33.8000 139.900 4 22 103
1933253N12140 1933 51 WP MM NOT_NAMED 1933-09-21 00:00:00 NR 33.3578 140.814 main 186 186 __________P___ -1 33.3578 140.814 4 16 126
1933253N12140 1933 51 WP MM NOT_NAMED 1933-09-21 03:00:00 NR 32.8369 141.461 main 276 276 __________P___ -1 32.8369 141.461 4 14 132
1933253N12140 1933 51 WP MM NOT_NAMED 1933-09-21 06:00:00 NR 32.3989 142.103 main 344 344 __________P___ -1 32.3989 142.103 4 14 116
1933253N12140 1933 51 WP MM NOT_NAMED 1933-09-21 09:00:00 NR 32.2000 143.000 main 411 411 __________O___ -1 32.2000 143.000 7 19 92
1933253N12140 1933 51 WP MM NOT_NAMED 1933-09-21 12:00:00 NR 32.3467 144.355 main 490 483 __________P___ -1 32.3467 144.355 7 27 78
1933253N12140 1933 51 WP MM NOT_NAMED 1933-09-21 15:00:00 NR 32.7695 146.120 main 576 576 __________P___ -1 32.7695 146.120 7 34 73
1933253N12140 1933 51 WP MM NOT_NAMED 1933-09-21 18:00:00 NR 33.3565 148.178 main 714 714 __________P___ -1 33.3565 148.178 7 38 71
1933253N12140 1933 51 WP MM NOT_NAMED 1933-09-21 21:00:00 NR 34.0000 150.400 main 885 __________O___ -1 34.0000 150.400 7 39 71

デジタル台風データ・検索

IBTrACS Databaseについて

本データベースは、米国NOAAが公開する1842年以降の世界の熱帯低気圧のベストトラックデータアーカイブInternational Best Track Archive for Climate Stewardship (IBTrACS)を、ウェブで閲覧しやすい形式に変換したものです。

最終更新日:2021-11-26